createdAt,value
2023-02-13T00:01:58.347Z,20.98
2023-02-13T00:04:25.064Z,19.13
2023-02-13T00:06:51.763Z,18.50
2023-02-13T00:09:18.473Z,19.95
2023-02-13T00:11:45.414Z,20.20
2023-02-13T00:14:12.159Z,20.10
2023-02-13T00:16:38.834Z,20.52
2023-02-13T00:19:05.740Z,20.35
2023-02-13T00:21:32.424Z,21.20
2023-02-13T00:23:59.168Z,18.90
2023-02-13T00:26:25.948Z,19.48
2023-02-13T00:28:52.822Z,19.80
2023-02-13T00:31:21.098Z,19.65
2023-02-13T00:33:49.140Z,19.73
2023-02-13T00:36:21.875Z,19.90
2023-02-13T00:38:49.039Z,18.70
2023-02-13T00:41:17.373Z,21.40
2023-02-13T00:43:45.165Z,18.63
2023-02-13T00:46:12.063Z,21.23
2023-02-13T00:48:39.361Z,19.27
2023-02-13T00:51:06.913Z,19.10
2023-02-13T00:53:34.386Z,19.67
2023-02-13T00:56:01.312Z,20.60
2023-02-13T00:58:28.184Z,21.13
2023-02-13T01:00:55.547Z,19.88
2023-02-13T01:03:22.998Z,20.65
2023-02-13T01:05:50.368Z,19.63
2023-02-13T01:08:18.096Z,18.77
2023-02-13T01:10:46.420Z,20.33
2023-02-13T01:13:14.547Z,18.77
2023-02-13T01:15:41.519Z,19.73
2023-02-13T01:18:08.267Z,22.25
2023-02-13T01:20:35.054Z,20.92
2023-02-13T01:23:01.786Z,19.58
2023-02-13T01:25:28.559Z,19.90
2023-02-13T01:27:56.499Z,20.73
2023-02-13T01:30:23.221Z,20.67
2023-02-13T01:32:49.935Z,19.17
2023-02-13T01:35:16.897Z,20.88
2023-02-13T01:37:44.160Z,21.45
2023-02-13T01:40:13.169Z,20.48
2023-02-13T01:42:40.087Z,18.48
2023-02-13T01:45:20.499Z,19.85
2023-02-13T01:47:50.942Z,19.40
2023-02-13T01:50:20.843Z,19.75
2023-02-13T01:52:57.208Z,20.35
2023-02-13T01:55:25.098Z,18.92
2023-02-13T01:57:56.902Z,19.23
2023-02-13T02:00:23.843Z,19.80
2023-02-13T02:03:01.654Z,19.88
2023-02-13T02:05:31.003Z,18.23
2023-02-13T02:07:58.941Z,20.88
2023-02-13T02:10:25.749Z,18.90
2023-02-13T02:12:59.010Z,21.42
2023-02-13T02:15:26.987Z,18.08
2023-02-13T02:17:53.691Z,18.30
2023-02-13T02:20:59.582Z,19.90
2023-02-13T02:23:55.619Z,18.17
2023-02-13T02:26:47.062Z,18.85
2023-02-13T02:29:29.550Z,18.20
2023-02-13T02:32:18.866Z,19.02
2023-02-13T02:35:09.917Z,17.48
2023-02-13T02:38:13.878Z,18.38
2023-02-13T02:41:02.506Z,19.02
2023-02-13T02:43:47.316Z,18.95
2023-02-13T02:46:28.146Z,18.02
2023-02-13T02:49:33.700Z,18.25
2023-02-13T02:52:08.909Z,16.88
2023-02-13T02:55:09.676Z,15.27
2023-02-13T02:58:15.838Z,16.50
2023-02-13T03:01:01.495Z,15.80
2023-02-13T03:03:47.718Z,15.43
2023-02-13T03:06:18.463Z,15.50
2023-02-13T03:09:12.017Z,17.27
2023-02-13T03:11:57.614Z,15.73
2023-02-13T03:14:25.940Z,16.45
2023-02-13T03:17:11.496Z,16.70
2023-02-13T03:20:09.293Z,16.85
2023-02-13T03:22:48.528Z,15.30
2023-02-13T03:25:30.349Z,16.60
2023-02-13T03:28:20.132Z,16.55
2023-02-13T03:30:46.825Z,16.90
2023-02-13T03:33:22.204Z,16.73
2023-02-13T03:36:31.230Z,15.98
2023-02-13T03:39:05.785Z,17.23
2023-02-13T03:41:40.783Z,18.63
2023-02-13T03:44:41.263Z,16.45
2023-02-13T03:47:09.449Z,15.73
2023-02-13T03:49:59.476Z,14.88
2023-02-13T03:52:54.874Z,14.98
2023-02-13T03:55:46.683Z,16.10
2023-02-13T03:58:54.698Z,14.85
2023-02-13T04:01:26.797Z,13.13
2023-02-13T04:04:08.160Z,13.25
2023-02-13T04:06:57.988Z,16.50
2023-02-13T04:09:27.287Z,14.00
2023-02-13T04:12:19.618Z,15.38
2023-02-13T04:14:58.707Z,13.88
2023-02-13T04:17:31.456Z,12.60
2023-02-13T04:19:58.148Z,13.70
2023-02-13T04:22:24.884Z,14.27
2023-02-13T04:24:51.629Z,13.20
2023-02-13T04:27:18.389Z,13.68
2023-02-13T04:29:45.039Z,13.75
2023-02-13T04:32:11.785Z,14.88
2023-02-13T04:34:38.802Z,13.82
2023-02-13T04:37:05.549Z,13.52
2023-02-13T04:39:32.287Z,13.48
2023-02-13T04:41:58.941Z,13.85
2023-02-13T04:44:25.627Z,11.60
2023-02-13T04:46:52.371Z,13.10
2023-02-13T04:49:19.086Z,13.43
2023-02-13T04:51:45.720Z,13.05
2023-02-13T04:54:12.384Z,12.82
2023-02-13T04:56:41.375Z,13.52
2023-02-13T04:59:08.048Z,11.82
2023-02-13T05:01:34.936Z,11.85
2023-02-13T05:04:01.794Z,11.55
2023-02-13T05:06:28.957Z,10.88
2023-02-13T05:08:55.615Z,11.50
2023-02-13T05:11:22.267Z,11.02
2023-02-13T05:13:48.988Z,11.18
2023-02-13T05:16:15.800Z,11.65
2023-02-13T05:18:42.510Z,11.35
2023-02-13T05:21:27.774Z,11.35
2023-02-13T05:23:54.522Z,11.32
2023-02-13T05:26:21.211Z,11.70
2023-02-13T05:29:06.825Z,11.60
2023-02-13T05:31:33.626Z,10.55
2023-02-13T05:34:01.155Z,11.07
2023-02-13T05:36:27.834Z,11.90
2023-02-13T05:38:54.570Z,12.23
2023-02-13T05:41:21.292Z,10.80
2023-02-13T05:43:47.944Z,11.13
2023-02-13T05:46:14.687Z,11.00
2023-02-13T05:48:41.391Z,10.85
2023-02-13T05:51:08.220Z,11.57
2023-02-13T05:53:35.456Z,10.95
2023-02-13T05:56:03.328Z,9.18
2023-02-13T05:58:30.022Z,10.63
2023-02-13T06:01:00.750Z,10.13
2023-02-13T06:03:29.498Z,10.07
2023-02-13T06:05:56.557Z,10.32
2023-02-13T06:08:23.895Z,10.38
2023-02-13T06:10:51.099Z,9.43
2023-02-13T06:13:17.854Z,11.00
2023-02-13T06:15:44.866Z,10.60
2023-02-13T06:18:12.063Z,10.90
2023-02-13T06:20:38.865Z,10.10
2023-02-13T06:23:05.495Z,9.63
2023-02-13T06:25:32.217Z,11.02
2023-02-13T06:27:58.966Z,10.48
2023-02-13T06:30:25.776Z,10.20
2023-02-13T06:32:52.652Z,9.63
2023-02-13T06:35:19.373Z,10.57
2023-02-13T06:37:46.139Z,10.90
2023-02-13T06:40:13.963Z,9.60
2023-02-13T06:42:42.470Z,14.55
2023-02-13T06:45:09.701Z,17.45
2023-02-13T06:47:36.347Z,17.15
2023-02-13T06:50:03.152Z,15.93
2023-02-13T06:52:30.670Z,13.77
2023-02-13T06:54:57.363Z,11.90
2023-02-13T06:57:24.033Z,10.90
2023-02-13T06:59:50.719Z,8.95
2023-02-13T07:02:17.471Z,8.70
2023-02-13T07:04:44.186Z,9.60
2023-02-13T07:07:10.935Z,8.70
2023-02-13T07:09:37.617Z,9.43
2023-02-13T07:12:04.911Z,9.68
2023-02-13T07:14:31.712Z,9.93
2023-02-13T07:16:58.824Z,10.18
2023-02-13T07:19:25.468Z,9.77
2023-02-13T07:21:52.163Z,9.52
2023-02-13T07:24:18.805Z,9.18
2023-02-13T07:26:45.693Z,10.95
2023-02-13T07:29:15.327Z,10.35
2023-02-13T07:31:42.092Z,9.15
2023-02-13T07:34:08.870Z,9.38
2023-02-13T07:36:35.607Z,8.98
2023-02-13T07:39:02.281Z,9.70
2023-02-13T07:41:29.072Z,9.35
2023-02-13T07:43:55.770Z,9.70
2023-02-13T07:46:22.447Z,9.25
2023-02-13T07:48:49.185Z,9.70
2023-02-13T07:51:16.472Z,7.90
2023-02-13T07:56:11.223Z,9.70
2023-02-13T07:58:40.547Z,9.90
2023-02-13T08:01:08.708Z,9.15
2023-02-13T08:03:35.598Z,10.48
2023-02-13T08:06:02.991Z,10.27
2023-02-13T08:08:29.788Z,9.50
2023-02-13T08:11:15.619Z,9.25
2023-02-13T08:13:43.402Z,8.93
2023-02-13T08:16:10.241Z,9.27
2023-02-13T08:18:36.976Z,8.63
2023-02-13T08:21:03.733Z,9.00
2023-02-13T08:23:30.437Z,9.30
2023-02-13T08:26:01.164Z,9.15
2023-02-13T08:28:29.677Z,9.15
2023-02-13T08:30:56.523Z,8.32
2023-02-13T08:33:23.321Z,8.10
2023-02-13T08:35:50.112Z,9.30
2023-02-13T08:38:16.837Z,8.68
2023-02-13T08:40:43.563Z,9.30
2023-02-13T08:43:10.378Z,9.52
2023-02-13T08:45:37.953Z,9.35
2023-02-13T08:48:04.680Z,9.07
2023-02-13T08:50:31.780Z,9.90
2023-02-13T08:52:58.625Z,9.25
2023-02-13T08:55:26.156Z,9.38
2023-02-13T08:57:52.867Z,9.48
2023-02-13T09:00:20.065Z,10.40
2023-02-13T09:02:46.760Z,10.05
2023-02-13T09:05:13.435Z,9.30
2023-02-13T09:07:40.171Z,10.70
2023-02-13T09:10:07.472Z,10.25
2023-02-13T09:12:34.211Z,9.90
2023-02-13T09:15:00.943Z,9.85
2023-02-13T09:17:27.636Z,10.13
2023-02-13T09:19:54.331Z,9.75
2023-02-13T09:22:21.041Z,9.82
2023-02-13T09:24:47.763Z,9.75
2023-02-13T09:27:14.468Z,10.32
2023-02-13T09:29:41.165Z,10.13
2023-02-13T09:32:07.922Z,10.75
2023-02-13T09:34:34.823Z,11.40
2023-02-13T09:37:01.564Z,10.77
2023-02-13T09:39:28.307Z,9.55
2023-02-13T09:41:55.599Z,9.82
2023-02-13T09:44:37.426Z,10.02
2023-02-13T09:47:13.382Z,9.82
2023-02-13T09:49:43.636Z,9.82
2023-02-13T09:52:10.735Z,10.93
2023-02-13T09:54:37.438Z,10.35
2023-02-13T09:57:29.431Z,11.68
2023-02-13T10:00:17.683Z,10.25
2023-02-13T10:03:14.933Z,10.15
2023-02-13T10:05:47.905Z,10.27
2023-02-13T10:08:53.442Z,10.13
2023-02-13T10:11:32.116Z,10.43
2023-02-13T10:14:08.338Z,9.82
2023-02-13T10:16:53.848Z,10.45
2023-02-13T10:19:42.011Z,10.05
2023-02-13T10:22:26.167Z,10.63
2023-02-13T10:25:06.880Z,10.90
2023-02-13T10:27:40.970Z,10.70
2023-02-13T10:30:30.859Z,10.38
2023-02-13T10:33:19.638Z,8.60
2023-02-13T10:36:22.966Z,10.52
2023-02-13T10:39:16.547Z,9.13
2023-02-13T10:42:27.851Z,10.38
2023-02-13T10:44:57.451Z,9.85
2023-02-13T10:47:24.100Z,11.88
2023-02-13T10:50:28.238Z,10.73
2023-02-13T10:53:13.460Z,9.07
2023-02-13T10:55:45.681Z,10.40
2023-02-13T10:58:22.843Z,10.37
2023-02-13T11:01:17.020Z,10.98
2023-02-13T11:03:47.477Z,10.98
2023-02-13T11:06:16.149Z,10.65
2023-02-13T11:08:45.802Z,10.05
2023-02-13T11:11:35.578Z,10.57
2023-02-13T11:14:11.148Z,10.50
2023-02-13T11:16:58.080Z,9.55
2023-02-13T11:19:32.578Z,10.25
2023-02-13T11:22:03.535Z,10.20
2023-02-13T11:24:30.682Z,10.52
2023-02-13T11:27:00.957Z,10.07
2023-02-13T11:29:33.591Z,9.00
2023-02-13T11:32:18.979Z,9.23
2023-02-13T11:34:46.611Z,7.55
2023-02-13T11:37:13.200Z,7.80
2023-02-13T11:39:41.774Z,7.63
2023-02-13T11:42:14.140Z,8.48
2023-02-13T11:44:41.653Z,8.52
2023-02-13T11:47:08.929Z,7.60
2023-02-13T11:49:39.323Z,7.65
2023-02-13T11:52:16.255Z,7.47
2023-02-13T11:54:43.694Z,8.30
2023-02-13T11:57:21.886Z,8.10
2023-02-13T11:59:53.120Z,7.68
2023-02-13T12:02:23.813Z,7.22
2023-02-13T12:04:53.245Z,7.50
2023-02-13T12:07:22.568Z,7.65
2023-02-13T12:09:55.138Z,7.35
2023-02-13T12:12:44.844Z,5.90
2023-02-13T12:15:20.163Z,6.07
2023-02-13T12:17:56.264Z,7.03
2023-02-13T12:20:24.228Z,7.65
2023-02-13T12:23:12.565Z,7.22
2023-02-13T12:25:49.050Z,6.70
2023-02-13T12:28:20.322Z,6.78
2023-02-13T12:31:15.017Z,6.30
2023-02-13T12:34:19.278Z,6.22
2023-02-13T12:37:20.190Z,6.60
2023-02-13T12:40:15.730Z,7.00
2023-02-13T12:42:51.158Z,6.90
2023-02-13T12:45:46.985Z,6.57
2023-02-13T12:48:34.741Z,6.75
2023-02-13T12:51:29.420Z,6.20
2023-02-13T12:54:05.653Z,6.85
2023-02-13T12:56:51.055Z,6.78
2023-02-13T12:59:40.278Z,6.20
2023-02-13T13:02:21.919Z,6.72
2023-02-13T13:05:15.050Z,6.80
2023-02-13T13:07:50.853Z,6.55
2023-02-13T13:10:23.297Z,5.60
2023-02-13T13:13:23.714Z,6.63
2023-02-13T13:16:22.186Z,5.80
2023-02-13T13:18:57.654Z,5.38
2023-02-13T13:21:39.713Z,6.50
2023-02-13T13:24:28.313Z,5.68
2023-02-13T13:26:57.290Z,6.55
2023-02-13T13:29:26.734Z,6.20
2023-02-13T13:31:57.822Z,6.10
2023-02-13T13:34:26.787Z,6.38
2023-02-13T13:37:13.708Z,6.60
2023-02-13T13:39:45.540Z,6.10
2023-02-13T13:42:47.648Z,12.25
2023-02-13T13:45:29.788Z,6.00
2023-02-13T13:48:25.789Z,6.38
2023-02-13T13:50:52.644Z,6.43
2023-02-13T13:53:23.171Z,6.47
2023-02-13T13:55:49.825Z,5.85
2023-02-13T13:58:23.868Z,5.97
2023-02-13T14:01:25.716Z,6.22
2023-02-13T14:04:03.553Z,5.85
2023-02-13T14:06:45.621Z,5.65
2023-02-13T14:09:27.705Z,6.10
2023-02-13T14:11:56.540Z,5.60
2023-02-13T14:14:30.275Z,6.53
2023-02-13T14:17:02.034Z,5.82
2023-02-13T14:19:39.487Z,5.75
2023-02-13T14:22:24.643Z,5.38
2023-02-13T14:24:55.329Z,6.25
2023-02-13T14:27:23.849Z,6.65
2023-02-13T14:29:50.783Z,5.88
2023-02-13T14:32:33.540Z,6.25
2023-02-13T14:35:03.926Z,6.10
2023-02-13T14:37:40.032Z,6.50
2023-02-13T14:40:17.469Z,6.72
2023-02-13T14:43:06.012Z,7.00
2023-02-13T14:45:37.072Z,7.60
2023-02-13T14:48:12.599Z,7.32
2023-02-13T14:50:46.518Z,6.57
2023-02-13T14:53:32.268Z,7.57
2023-02-13T14:56:06.307Z,7.63
2023-02-13T14:58:36.876Z,7.35
2023-02-13T15:01:07.059Z,7.20
2023-02-13T15:03:57.463Z,6.00
2023-02-13T15:06:31.223Z,7.47
2023-02-13T15:09:00.244Z,6.60
2023-02-13T15:11:42.646Z,6.47
2023-02-13T15:14:17.333Z,6.13
2023-02-13T15:16:46.776Z,6.05
2023-02-13T15:19:18.168Z,5.85
2023-02-13T15:21:51.911Z,6.03
2023-02-13T15:24:22.851Z,5.93
2023-02-13T15:27:00.968Z,5.80
2023-02-13T15:29:38.042Z,6.50
2023-02-13T15:32:19.222Z,5.63
2023-02-13T15:34:48.977Z,6.03
2023-02-13T15:37:24.152Z,6.15
2023-02-13T15:39:50.835Z,6.60
2023-02-13T15:42:36.666Z,5.88
2023-02-13T15:45:03.565Z,6.60
2023-02-13T15:47:31.979Z,6.20
2023-02-13T15:49:59.066Z,5.95
2023-02-13T15:52:34.422Z,6.68
2023-02-13T15:55:01.294Z,6.00
2023-02-13T15:57:28.587Z,6.28
2023-02-13T15:59:56.119Z,5.35
2023-02-13T16:02:28.289Z,6.53
2023-02-13T16:04:55.819Z,6.70
2023-02-13T16:07:22.928Z,6.78
2023-02-13T16:09:49.810Z,6.40
2023-02-13T16:12:24.603Z,6.10
2023-02-13T16:14:52.556Z,5.47
2023-02-13T16:17:31.587Z,4.85
2023-02-13T16:20:02.068Z,5.30
2023-02-13T16:22:44.983Z,5.20
2023-02-13T16:25:26.821Z,5.43
2023-02-13T16:27:57.118Z,5.57
2023-02-13T16:30:35.839Z,5.40
2023-02-13T16:33:14.651Z,5.32
2023-02-13T16:35:55.671Z,4.85
2023-02-13T16:38:36.408Z,5.38
2023-02-13T16:41:28.767Z,5.03
2023-02-13T16:44:00.712Z,5.57
2023-02-13T16:46:36.291Z,6.00
2023-02-13T16:49:09.218Z,6.10
2023-02-13T16:51:42.707Z,7.13
2023-02-13T16:54:12.085Z,6.90
2023-02-13T16:56:52.958Z,7.20
2023-02-13T16:59:29.894Z,7.97
2023-02-13T17:02:29.898Z,7.15
2023-02-13T17:05:20.247Z,7.72
2023-02-13T17:07:51.780Z,6.70
2023-02-13T17:10:30.962Z,7.00
2023-02-13T17:13:23.442Z,7.15
2023-02-13T17:15:51.762Z,7.32
2023-02-13T17:18:18.548Z,8.30
2023-02-13T17:20:45.494Z,8.05
2023-02-13T17:23:17.692Z,8.50
2023-02-13T17:25:46.153Z,8.37
2023-02-13T17:28:14.298Z,7.55
2023-02-13T17:30:41.851Z,7.38
2023-02-13T17:33:17.100Z,7.50
2023-02-13T17:35:43.814Z,7.68
2023-02-13T17:38:10.594Z,8.10
2023-02-13T17:40:37.707Z,7.80
2023-02-13T17:43:04.757Z,6.97
2023-02-13T17:45:33.513Z,7.90
2023-02-13T17:48:00.250Z,7.72
2023-02-13T17:50:28.610Z,8.60
2023-02-13T17:52:55.519Z,8.57
2023-02-13T17:55:27.596Z,8.65
2023-02-13T17:57:56.542Z,8.35
2023-02-13T18:00:35.390Z,9.25
2023-02-13T18:03:02.233Z,9.52
2023-02-13T18:05:29.124Z,9.15
2023-02-13T18:07:55.988Z,11.00
2023-02-13T18:10:27.487Z,10.10
2023-02-13T18:12:56.634Z,10.57
2023-02-13T18:15:24.324Z,10.30
2023-02-13T18:17:51.162Z,10.20
2023-02-13T18:20:20.609Z,11.13
2023-02-13T18:22:50.428Z,10.73
2023-02-13T18:25:17.916Z,10.25
2023-02-13T18:27:45.129Z,10.20
2023-02-13T18:30:14.348Z,9.95
2023-02-13T18:32:41.398Z,9.07
2023-02-13T18:35:08.256Z,10.02
2023-02-13T18:37:35.466Z,11.20
2023-02-13T18:40:02.159Z,9.93
2023-02-13T18:42:28.893Z,10.70
2023-02-13T18:44:55.633Z,10.93
2023-02-13T18:47:22.325Z,9.98
2023-02-13T18:49:49.371Z,10.73
2023-02-13T18:52:16.083Z,9.95
2023-02-13T18:54:42.860Z,10.73
2023-02-13T18:57:09.644Z,10.73
2023-02-13T18:59:36.385Z,10.88
2023-02-13T19:02:04.366Z,10.75
2023-02-13T19:04:31.470Z,11.77
2023-02-13T19:06:58.185Z,9.55
2023-02-13T19:09:24.906Z,9.50
2023-02-13T19:11:53.140Z,11.30
2023-02-13T19:14:19.942Z,9.82
2023-02-13T19:16:46.757Z,10.20
2023-02-13T19:19:13.511Z,9.68
2023-02-13T19:21:40.320Z,10.02
2023-02-13T19:24:09.259Z,9.77
2023-02-13T19:26:36.673Z,11.05
2023-02-13T19:29:03.775Z,10.30
2023-02-13T19:31:31.542Z,12.15
2023-02-13T19:34:00.340Z,10.63
2023-02-13T19:36:28.713Z,14.45
2023-02-13T19:39:01.145Z,10.13
2023-02-13T19:41:28.936Z,10.85
2023-02-13T19:43:56.174Z,12.30
2023-02-13T19:46:25.465Z,9.82
2023-02-13T19:48:52.774Z,10.52
2023-02-13T19:51:24.348Z,13.07
2023-02-13T19:54:01.507Z,11.93
2023-02-13T19:56:29.169Z,12.13
2023-02-13T19:58:55.887Z,11.07
2023-02-13T20:01:24.093Z,10.05
2023-02-13T20:03:51.038Z,10.43
2023-02-13T20:06:24.111Z,9.30
2023-02-13T20:08:52.477Z,10.18
2023-02-13T20:11:21.032Z,10.82
2023-02-13T20:13:48.462Z,12.70
2023-02-13T20:16:18.439Z,11.48
2023-02-13T20:18:45.300Z,12.82
2023-02-13T20:21:14.178Z,15.38
2023-02-13T20:23:42.027Z,15.57
2023-02-13T20:26:11.142Z,15.90
2023-02-13T20:28:38.129Z,16.23
2023-02-13T20:31:16.431Z,16.35
2023-02-13T20:33:43.493Z,14.50
2023-02-13T20:36:18.233Z,15.38
2023-02-13T20:38:44.943Z,15.13
2023-02-13T20:41:17.484Z,13.85
2023-02-13T20:43:44.668Z,14.45
2023-02-13T20:46:12.289Z,14.95
2023-02-13T20:48:40.043Z,14.68
2023-02-13T20:51:09.750Z,14.07
2023-02-13T20:53:36.722Z,13.38
2023-02-13T20:56:12.454Z,14.57
2023-02-13T20:58:40.362Z,12.80
2023-02-13T21:01:20.393Z,13.57
2023-02-13T21:03:49.917Z,13.73
2023-02-13T21:06:16.737Z,12.75
2023-02-13T21:08:43.771Z,13.15
2023-02-13T21:11:10.611Z,13.45
2023-02-13T21:13:39.170Z,12.20
2023-02-13T21:16:11.249Z,15.65
2023-02-13T21:18:39.058Z,12.73
2023-02-13T21:21:07.066Z,13.25
2023-02-13T21:23:34.124Z,13.05
2023-02-13T21:26:05.535Z,12.95
2023-02-13T21:28:32.580Z,12.55
2023-02-13T21:31:05.410Z,13.45
2023-02-13T21:33:32.121Z,12.93
2023-02-13T21:36:02.876Z,13.55
2023-02-13T21:38:29.580Z,14.93
2023-02-13T21:41:04.218Z,13.77
2023-02-13T21:43:30.873Z,15.52
2023-02-13T21:46:08.085Z,14.02
2023-02-13T21:48:34.838Z,14.48
2023-02-13T21:51:09.460Z,15.88
2023-02-13T21:53:36.126Z,16.15
2023-02-13T21:56:04.051Z,14.10
2023-02-13T21:58:37.952Z,15.48
2023-02-13T22:01:25.387Z,15.77
2023-02-13T22:04:00.161Z,12.75
2023-02-13T22:06:28.712Z,12.82
2023-02-13T22:08:59.678Z,13.82
2023-02-13T22:11:26.929Z,14.70
2023-02-13T22:14:01.564Z,16.13
2023-02-13T22:16:29.729Z,16.60
2023-02-13T22:18:56.520Z,16.05
2023-02-13T22:21:25.069Z,16.08
2023-02-13T22:23:52.099Z,15.70
2023-02-13T22:26:27.992Z,13.80
2023-02-13T22:28:56.033Z,14.82
2023-02-13T22:31:25.399Z,14.68
2023-02-13T22:34:09.377Z,15.38
2023-02-13T22:39:06.664Z,16.55
2023-02-13T22:41:33.399Z,16.35
2023-02-13T22:44:00.155Z,17.08
2023-02-13T22:46:32.108Z,13.82
2023-02-13T22:48:59.683Z,16.55
2023-02-13T22:51:34.378Z,16.50
2023-02-13T22:54:01.362Z,15.57
2023-02-13T22:56:29.131Z,15.68
2023-02-13T22:58:55.918Z,16.85
2023-02-13T23:01:25.034Z,17.20
2023-02-13T23:03:52.050Z,17.83
2023-02-13T23:06:18.935Z,18.20
2023-02-13T23:08:45.614Z,18.15
2023-02-13T23:11:34.858Z,18.35
2023-02-13T23:14:02.017Z,17.85
2023-02-13T23:16:49.292Z,18.45
2023-02-13T23:19:16.284Z,18.25
2023-02-13T23:21:42.989Z,17.98
2023-02-13T23:24:09.844Z,18.23
2023-02-13T23:26:36.582Z,18.95
2023-02-13T23:29:03.224Z,18.73
2023-02-13T23:31:30.100Z,17.75
2023-02-13T23:33:56.825Z,18.27
2023-02-13T23:36:23.640Z,18.63
2023-02-13T23:38:50.285Z,17.05
2023-02-13T23:41:17.040Z,18.50
2023-02-13T23:43:43.797Z,19.05
2023-02-13T23:46:10.575Z,18.25
2023-02-13T23:48:37.317Z,17.98
2023-02-13T23:51:04.076Z,18.50
2023-02-13T23:53:30.917Z,17.67
2023-02-13T23:55:57.637Z,18.38
2023-02-13T23:58:24.433Z,19.13
